Time;durP1;ratioP1;P1;durP2;ratioP2;P2;SDS_P1;SDS_P2;PMS_P1;PMS_P2;Temp;Humidity;BMP_temperature;BMP_pressure;BME280_temperature;BME280_humidity;BME280_pressure;Samples;Min_cycle;Max_cycle;Signal;HPM_P1;HPM_P2
2021/09/25 00:00:20;;;;;;;10.27;2.72;;;;;;;17.31;78.98;101461.06;5054000;28;20498;-41
2021/09/25 00:02:46;;;;;;;10.60;2.90;;;;;;;17.32;79.05;101462.75;5046563;28;20045;-41
2021/09/25 00:05:11;;;;;;;10.40;2.65;;;;;;;17.31;79.13;101461.06;5034932;28;20021;-42
2021/09/25 00:07:36;;;;;;;15.95;3.10;;;;;;;17.34;79.23;101455.19;5033712;28;20034;-42
2021/09/25 00:10:03;;;;;;;13.38;2.60;;;;;;;17.33;79.50;101458.13;5033511;28;20507;-42
2021/09/25 00:12:28;;;;;;;14.43;3.03;;;;;;;17.32;79.46;101456.44;5037749;28;20039;-42
2021/09/25 00:14:54;;;;;;;11.07;2.70;;;;;;;17.31;79.60;101455.63;5052565;28;20025;-42
2021/09/25 00:17:19;;;;;;;15.60;3.78;;;;;;;17.29;79.69;101452.25;5053293;28;20385;-41
2021/09/25 00:19:44;;;;;;;16.75;2.55;;;;;;;17.27;79.84;101454.38;5053197;28;20472;-41
2021/09/25 00:22:10;;;;;;;15.57;2.60;;;;;;;17.30;79.72;101453.97;5053253;28;20086;-41
2021/09/25 00:24:35;;;;;;;10.52;2.40;;;;;;;17.25;80.09;101451.03;5051610;28;20025;-41
2021/09/25 00:27:00;;;;;;;9.82;2.50;;;;;;;17.29;80.07;101452.25;5035249;28;20028;-42
2021/09/25 00:29:27;;;;;;;11.77;2.45;;;;;;;17.29;80.20;101457.69;5045741;28;20108;-41
2021/09/25 00:31:52;;;;;;;11.82;2.70;;;;;;;17.26;80.43;101452.69;5033356;28;20042;-41
2021/09/25 00:34:17;;;;;;;13.82;2.70;;;;;;;17.24;80.65;101452.06;5032434;28;20032;-41
2021/09/25 00:36:43;;;;;;;12.25;3.10;;;;;;;17.20;80.94;101455.44;5053074;28;20025;-43
2021/09/25 00:39:08;;;;;;;9.90;2.80;;;;;;;17.20;80.99;101458.16;5053083;28;20104;-41
2021/09/25 00:41:34;;;;;;;10.65;2.85;;;;;;;17.21;80.88;101460.66;5053105;28;20127;-41
2021/09/25 00:43:59;;;;;;;8.65;2.72;;;;;;;17.21;81.01;101455.22;5052734;28;20032;-40
2021/09/25 00:46:25;;;;;;;19.40;3.22;;;;;;;17.19;81.15;101449.13;5032693;28;20389;-42
2021/09/25 00:48:50;;;;;;;13.95;3.05;;;;;;;17.20;81.19;101456.28;5041471;28;20029;-41
2021/09/25 00:51:17;;;;;;;13.50;2.83;;;;;;;17.20;81.03;101456.28;5051501;28;20021;-42
2021/09/25 00:53:42;;;;;;;9.88;2.67;;;;;;;17.25;80.93;101461.91;5052920;28;20028;-41
2021/09/25 00:56:08;;;;;;;8.18;2.47;;;;;;;17.27;80.65;101459.81;5036034;28;20373;-41
2021/09/25 00:58:35;;;;;;;9.88;2.55;;;;;;;17.33;80.35;101463.59;5032937;28;20018;-41
2021/09/25 01:01:01;;;;;;;13.67;3.00;;;;;;;17.25;80.21;101461.91;5052029;28;20444;-41
2021/09/25 01:03:26;;;;;;;11.40;2.80;;;;;;;17.18;80.39;101462.97;5052832;28;20060;-41
2021/09/25 01:05:52;;;;;;;7.50;2.50;;;;;;;17.19;80.07;101459.19;5038163;28;20040;-41
2021/09/25 01:08:22;;;;;;;8.77;2.90;;;;;;;17.18;80.09;101461.06;5032375;28;20113;-41
2021/09/25 01:10:48;;;;;;;12.27;3.47;;;;;;;17.19;79.96;101462.72;5033479;28;20029;-41
2021/09/25 01:13:13;;;;;;;11.35;2.53;;;;;;;17.13;80.02;101460.03;5031225;28;20037;-41
2021/09/25 01:15:39;;;;;;;10.63;3.60;;;;;;;17.11;80.07;101461.09;5033521;28;20030;-41
2021/09/25 01:18:04;;;;;;;6.35;2.17;;;;;;;17.09;79.96;101451.47;5033266;28;20025;-41
2021/09/25 01:20:29;;;;;;;12.48;2.90;;;;;;;17.09;79.81;101456.91;5052334;28;20112;-42
2021/09/25 01:22:55;;;;;;;10.48;2.97;;;;;;;17.05;79.84;101453.75;5052313;28;20133;-41
2021/09/25 01:25:20;;;;;;;8.13;2.67;;;;;;;16.94;80.08;101456.28;5040991;28;20384;-41
2021/09/25 01:27:46;;;;;;;13.85;3.67;;;;;;;16.93;80.10;101457.31;5031114;28;20112;-41
2021/09/25 01:30:13;;;;;;;11.13;2.78;;;;;;;16.88;80.04;101456.06;5033355;28;20025;-41
2021/09/25 01:32:39;;;;;;;10.55;3.38;;;;;;;16.93;79.84;101462.75;5047369;28;20033;-42
2021/09/25 01:35:06;;;;;;;10.75;3.88;;;;;;;16.89;79.85;101457.72;5043117;28;20026;-41
2021/09/25 01:37:31;;;;;;;14.33;4.27;;;;;;;16.92;79.86;101461.91;5032330;28;20059;-41
2021/09/25 01:39:57;;;;;;;13.57;3.72;;;;;;;16.88;79.80;101455.25;5032178;28;20128;-41
2021/09/25 01:42:22;;;;;;;9.68;3.50;;;;;;;16.81;80.12;101455.22;5032316;28;20140;-41
2021/09/25 01:44:50;;;;;;;8.00;3.15;;;;;;;16.79;80.38;101454.59;5042290;28;20059;-40
2021/09/25 01:47:15;;;;;;;11.75;3.80;;;;;;;16.82;80.36;101459.59;5050621;28;20110;-40
2021/09/25 01:49:40;;;;;;;9.43;3.40;;;;;;;16.80;80.37;101456.28;5051958;28;20041;-42
2021/09/25 01:52:06;;;;;;;12.07;3.65;;;;;;;16.83;80.27;101452.31;5050213;28;20388;-41
2021/09/25 01:54:31;;;;;;;12.45;3.40;;;;;;;16.81;80.44;101460.66;5042501;28;20120;-41
2021/09/25 01:56:56;;;;;;;12.23;4.40;;;;;;;16.78;80.47;101452.94;5033983;28;20021;-42
2021/09/25 01:59:22;;;;;;;12.90;3.92;;;;;;;16.75;80.69;101456.03;5044269;28;20471;-41
2021/09/25 02:01:48;;;;;;;17.33;4.38;;;;;;;16.72;80.93;101453.75;5056079;28;20488;-41
2021/09/25 02:04:14;;;;;;;15.30;3.90;;;;;;;16.76;80.81;101448.72;5050511;28;20025;-41
2021/09/25 02:06:39;;;;;;;15.77;4.10;;;;;;;16.79;80.58;101446.44;5035856;28;20125;-41
2021/09/25 02:09:04;;;;;;;16.20;3.60;;;;;;;16.82;80.66;101450.63;5035994;28;20021;-40
2021/09/25 02:11:30;;;;;;;10.15;3.78;;;;;;;16.80;80.70;101453.56;5036052;28;20033;-41
2021/09/25 02:13:55;;;;;;;14.85;4.05;;;;;;;16.74;80.96;101453.50;5041681;28;20071;-41
2021/09/25 02:16:21;;;;;;;9.50;3.85;;;;;;;16.75;80.96;101453.31;5055380;28;20040;-40
2021/09/25 02:18:46;;;;;;;13.48;4.07;;;;;;;16.75;80.96;101456.03;5055744;28;20535;-41
2021/09/25 02:21:12;;;;;;;8.27;3.65;;;;;;;16.73;81.09;101452.69;5055545;28;20110;-41
2021/09/25 02:23:37;;;;;;;10.20;3.65;;;;;;;16.71;81.04;101446.59;5052115;28;20038;-40
2021/09/25 02:26:03;;;;;;;10.98;4.57;;;;;;;16.72;81.07;101455.59;5035709;28;20025;-40
2021/09/25 02:28:30;;;;;;;10.65;3.95;;;;;;;16.68;80.97;101455.19;5038110;28;20025;-41
2021/09/25 02:30:56;;;;;;;10.70;4.47;;;;;;;16.71;80.99;101454.75;5035452;28;20384;-41
2021/09/25 02:33:21;;;;;;;10.38;3.70;;;;;;;16.64;81.27;101453.91;5036233;28;20033;-41
2021/09/25 02:35:47;;;;;;;13.82;4.22;;;;;;;16.66;81.18;101446.38;5041947;28;20431;-41
2021/09/25 02:38:13;;;;;;;14.75;4.70;;;;;;;16.68;81.20;101447.84;5055486;28;20362;-40
2021/09/25 02:40:39;;;;;;;13.50;4.68;;;;;;;16.65;81.11;101447.44;5053686;28;20051;-41
2021/09/25 02:43:04;;;;;;;9.80;4.35;;;;;;;16.62;81.40;101445.16;5039603;28;20061;-40
2021/09/25 02:45:30;;;;;;;13.60;4.57;;;;;;;16.60;81.36;101447.22;5055516;28;20021;-41
2021/09/25 02:47:55;;;;;;;16.17;4.63;;;;;;;16.62;81.45;101445.16;5055338;28;20055;-41
2021/09/25 02:50:21;;;;;;;16.08;5.28;;;;;;;16.56;81.63;101445.97;5055121;28;20028;-42
2021/09/25 02:52:47;;;;;;;17.40;4.75;;;;;;;16.53;81.99;101436.34;5055365;28;20027;-42
2021/09/25 02:55:13;;;;;;;13.15;4.53;;;;;;;16.52;82.17;101433.84;5038082;28;20030;-40
2021/09/25 02:57:38;;;;;;;12.38;4.57;;;;;;;16.53;82.33;101430.06;5035259;28;20418;-41
2021/09/25 03:00:07;;;;;;;17.33;4.60;;;;;;;16.56;82.23;101448.66;5054902;28;20036;-41
2021/09/25 03:02:32;;;;;;;13.95;4.20;;;;;;;16.59;82.08;101440.13;5054746;28;20025;-40
2021/09/25 03:04:57;;;;;;;11.70;4.35;;;;;;;16.62;82.19;101442.44;5040197;28;20034;-41
2021/09/25 03:07:23;;;;;;;11.48;4.47;;;;;;;16.64;81.94;101448.47;5034688;28;20021;-41
2021/09/25 03:09:49;;;;;;;14.45;4.38;;;;;;;16.67;81.99;101448.09;5040488;28;20043;-40
2021/09/25 03:12:15;;;;;;;10.60;4.90;;;;;;;16.68;81.90;101444.31;5054676;28;20199;-40
2021/09/25 03:14:41;;;;;;;11.90;4.18;;;;;;;16.69;81.82;101440.53;5053062;28;20028;-40
2021/09/25 03:17:07;;;;;;;12.07;4.85;;;;;;;16.62;82.14;101440.53;5054437;28;20032;-40
2021/09/25 03:19:32;;;;;;;14.00;4.70;;;;;;;16.66;82.00;101440.97;5054434;28;20053;-41
2021/09/25 03:21:57;;;;;;;17.98;5.05;;;;;;;16.68;81.93;101444.31;5054699;28;20033;-40
2021/09/25 03:24:23;;;;;;;17.27;5.38;;;;;;;16.69;82.06;101440.53;5041334;28;20057;-42
2021/09/25 03:26:48;;;;;;;9.70;4.57;;;;;;;16.66;82.25;101440.97;5034678;28;20029;-41
2021/09/25 03:29:13;;;;;;;17.92;4.90;;;;;;;16.66;82.17;101440.97;5034670;28;20079;-41
2021/09/25 03:31:39;;;;;;;13.63;4.43;;;;;;;16.66;82.25;101444.50;5034559;28;20021;-40
2021/09/25 03:34:06;;;;;;;12.98;4.85;;;;;;;16.64;82.34;101437.59;5038132;28;20029;-40
2021/09/25 03:36:31;;;;;;;14.07;4.90;;;;;;;16.63;82.44;101439.50;5036097;28;20451;-41
2021/09/25 03:38:56;;;;;;;16.02;5.38;;;;;;;16.65;82.46;101444.72;5033168;28;20032;-40
2021/09/25 03:41:22;;;;;;;13.98;5.32;;;;;;;16.67;82.54;101445.38;5034065;28;20053;-41
2021/09/25 03:43:50;;;;;;;17.05;4.93;;;;;;;16.65;82.71;101444.72;5034211;28;20428;-41
2021/09/25 03:46:17;;;;;;;21.33;5.60;;;;;;;16.64;82.95;101437.59;5041166;28;20029;-41
2021/09/25 03:48:42;;;;;;;14.75;5.55;;;;;;;16.64;82.96;101435.75;5054092;28;20021;-42
2021/09/25 03:51:08;;;;;;;18.55;5.78;;;;;;;16.60;83.39;101433.66;5049221;28;20032;-43
2021/09/25 03:53:33;;;;;;;16.35;6.05;;;;;;;16.58;83.56;101436.56;5034256;28;20029;-41
2021/09/25 03:55:59;;;;;;;15.55;5.38;;;;;;;16.60;83.52;101439.06;5035473;28;20112;-41
2021/09/25 03:58:24;;;;;;;13.68;5.60;;;;;;;16.61;83.59;101436.16;5034176;28;20536;-41
2021/09/25 04:00:49;;;;;;;20.25;6.32;;;;;;;16.59;83.73;101440.13;5034204;28;20104;-42
2021/09/25 04:03:14;;;;;;;19.90;5.88;;;;;;;16.62;83.48;101447.88;5039571;28;20174;-41
2021/09/25 04:05:40;;;;;;;20.85;6.63;;;;;;;16.60;83.77;101437.19;5051424;28;20030;-41
2021/09/25 04:08:06;;;;;;;15.30;6.05;;;;;;;16.64;83.67;101445.75;5036094;28;20042;-42
2021/09/25 04:10:32;;;;;;;15.48;5.95;;;;;;;16.68;83.51;101444.31;5048335;28;20024;-41
2021/09/25 04:12:57;;;;;;;14.23;6.40;;;;;;;16.65;83.67;101440.13;5054103;28;20464;-42
2021/09/25 04:15:23;;;;;;;19.85;6.45;;;;;;;16.66;83.57;101444.50;5053283;28;20502;-41
2021/09/25 04:17:49;;;;;;;16.85;6.40;;;;;;;16.65;83.66;101439.28;5039283;28;20048;-41
2021/09/25 04:20:15;;;;;;;17.75;6.63;;;;;;;16.68;83.51;101445.13;5046332;28;20042;-41
2021/09/25 04:22:40;;;;;;;21.70;6.40;;;;;;;16.69;83.58;101440.53;5045261;28;20036;-41
2021/09/25 04:25:06;;;;;;;16.25;6.35;;;;;;;16.65;83.84;101442.00;5051319;28;20464;-41
2021/09/25 04:27:32;;;;;;;21.23;6.82;;;;;;;16.68;83.79;101442.41;5034800;28;20049;-41
2021/09/25 04:30:01;;;;;;;28.08;6.97;;;;;;;16.69;83.62;101440.53;5045496;28;20479;-41
2021/09/25 04:32:27;;;;;;;16.52;6.70;;;;;;;16.72;83.76;101439.28;5032240;28;20029;-43
2021/09/25 04:34:52;;;;;;;16.13;6.22;;;;;;;16.74;83.76;101446.19;5034892;28;20025;-41
2021/09/25 04:37:18;;;;;;;14.82;6.32;;;;;;;16.74;83.91;101440.75;5050348;28;20420;-42
2021/09/25 04:39:43;;;;;;;16.40;6.30;;;;;;;16.74;83.62;101443.47;5050031;28;20528;-42
2021/09/25 04:42:08;;;;;;;14.57;6.28;;;;;;;16.70;83.63;101442.22;5048871;28;20066;-41
2021/09/25 04:44:34;;;;;;;20.95;7.20;;;;;;;16.67;83.90;101438.03;5050157;28;20025;-41
2021/09/25 04:46:59;;;;;;;16.02;6.53;;;;;;;16.66;83.92;101447.22;5045933;28;20108;-41
2021/09/25 04:49:26;;;;;;;18.17;6.45;;;;;;;16.65;83.92;101450.16;5030263;28;20036;-40
2021/09/25 04:51:51;;;;;;;17.52;6.63;;;;;;;16.67;84.00;101442.66;5029925;28;20140;-40
2021/09/25 04:54:16;;;;;;;12.90;6.32;;;;;;;16.68;83.98;101433.44;5035152;28;20125;-40
2021/09/25 04:56:42;;;;;;;15.52;5.70;;;;;;;16.75;83.85;101436.19;5048410;28;20078;-40
2021/09/25 04:59:07;;;;;;;14.68;6.82;;;;;;;16.71;83.82;101433.00;5049777;28;20033;-40
2021/09/25 05:01:32;;;;;;;17.10;7.10;;;;;;;16.73;83.80;101444.53;5049431;28;20029;-40
2021/09/25 05:04:00;;;;;;;17.88;7.28;;;;;;;16.70;83.74;101439.50;5049674;28;20025;-40
2021/09/25 05:06:26;;;;;;;19.98;7.55;;;;;;;16.67;83.77;101438.03;5049744;28;20029;-41
2021/09/25 05:08:51;;;;;;;19.00;7.22;;;;;;;16.67;83.80;101435.31;5049865;28;20029;-40
2021/09/25 05:11:17;;;;;;;16.60;7.85;;;;;;;16.70;83.98;101441.41;5049457;28;20033;-40
2021/09/25 05:13:42;;;;;;;19.65;7.18;;;;;;;16.65;83.89;101442.00;5049479;28;20448;-40
2021/09/25 05:16:07;;;;;;;21.55;7.38;;;;;;;16.65;83.93;101444.72;5049456;28;20432;-40
2021/09/25 05:18:33;;;;;;;22.98;7.75;;;;;;;16.56;84.44;101443.25;5049450;28;20029;-41
2021/09/25 05:20:58;;;;;;;27.33;8.77;;;;;;;16.57;84.45;101439.50;5049391;28;20113;-42
2021/09/25 05:23:23;;;;;;;21.98;6.88;;;;;;;16.59;84.29;101440.13;5049209;28;20052;-40
2021/09/25 05:25:49;;;;;;;22.90;8.60;;;;;;;16.60;84.40;101447.22;5049554;28;20115;-40
2021/09/25 05:28:14;;;;;;;23.70;9.07;;;;;;;16.56;84.76;101440.53;5048152;28;20459;-42
2021/09/25 05:30:40;;;;;;;27.38;8.35;;;;;;;16.57;84.60;101439.50;5049330;28;20395;-41
2021/09/25 05:33:06;;;;;;;20.55;8.40;;;;;;;16.61;84.54;101438.03;5049358;28;20064;-40
2021/09/25 05:35:32;;;;;;;25.25;8.90;;;;;;;16.58;84.75;101438.44;5049372;28;20037;-40
2021/09/25 05:37:57;;;;;;;21.88;9.27;;;;;;;16.55;85.02;101452.44;5049355;28;20051;-41
2021/09/25 05:40:22;;;;;;;27.20;9.00;;;;;;;16.52;85.26;101442.81;5049042;28;20053;-42
2021/09/25 05:42:49;;;;;;;23.13;8.75;;;;;;;16.54;85.03;101445.34;5049195;28;20583;-43
2021/09/25 05:45:17;;;;;;;19.60;8.18;;;;;;;16.56;85.00;101448.66;5049074;28;20075;-41
2021/09/25 05:47:43;;;;;;;29.58;9.55;;;;;;;16.54;84.93;101446.19;5049315;28;20110;-41
2021/09/25 05:50:09;;;;;;;18.73;9.15;;;;;;;16.57;85.02;101439.50;5049118;28;20025;-41
2021/09/25 05:52:34;;;;;;;21.15;9.05;;;;;;;16.59;85.07;101445.56;5049266;28;20435;-41
2021/09/25 05:55:00;;;;;;;24.95;9.15;;;;;;;16.62;85.00;101456.84;5048972;28;20040;-40
2021/09/25 05:57:25;;;;;;;27.75;9.85;;;;;;;16.61;84.80;101448.88;5051154;28;20115;-42
2021/09/25 05:59:51;;;;;;;27.17;9.20;;;;;;;16.58;85.17;101449.31;5051771;28;20036;-42
2021/09/25 06:02:16;;;;;;;32.17;9.80;;;;;;;16.60;85.08;101450.78;5062125;28;20040;-41
2021/09/25 06:04:41;;;;;;;32.03;11.00;;;;;;;16.60;84.99;101444.50;5050785;28;20025;-42
2021/09/25 06:07:11;;;;;;;28.38;9.60;;;;;;;16.63;85.18;101449.53;5052001;28;20396;-41
2021/09/25 06:09:36;;;;;;;29.08;10.55;;;;;;;16.64;85.09;101448.47;5052118;28;20024;-41
2021/09/25 06:12:02;;;;;;;27.23;10.75;;;;;;;16.64;85.15;101454.78;5052055;28;20464;-40
2021/09/25 06:14:27;;;;;;;30.13;10.70;;;;;;;16.63;85.18;101452.25;5051770;28;20029;-40
2021/09/25 06:16:53;;;;;;;32.47;11.27;;;;;;;16.60;85.17;101450.78;5052054;28;20116;-41
2021/09/25 06:19:18;;;;;;;30.58;10.35;;;;;;;16.63;85.12;101458.50;5052051;28;20128;-42
2021/09/25 06:21:43;;;;;;;43.45;10.65;;;;;;;16.63;85.08;101452.25;5051808;28;20033;-41
2021/09/25 06:24:10;;;;;;;33.63;12.23;;;;;;;16.63;85.26;101450.34;5051783;28;20048;-41
2021/09/25 06:26:35;;;;;;;39.40;13.48;;;;;;;16.62;85.10;101451.41;5051662;28;20464;-41
2021/09/25 06:29:00;;;;;;;31.17;11.43;;;;;;;16.62;85.48;101453.31;5051594;28;20029;-41
2021/09/25 06:31:26;;;;;;;35.90;11.65;;;;;;;16.66;85.05;101449.09;5051651;28;20114;-41
2021/09/25 06:33:51;;;;;;;34.35;11.90;;;;;;;16.66;84.98;101454.53;5051567;28;20017;-41
2021/09/25 06:36:16;;;;;;;39.35;12.10;;;;;;;16.72;84.78;101463.75;5051425;28;20025;-41
2021/09/25 06:38:42;;;;;;;47.67;12.65;;;;;;;16.72;84.66;101461.88;5051462;28;20025;-41
2021/09/25 06:41:07;;;;;;;36.30;12.55;;;;;;;16.75;84.74;101463.34;5051101;28;20056;-41
2021/09/25 06:43:33;;;;;;;40.20;12.82;;;;;;;16.71;84.87;101462.09;5034839;28;20040;-41
2021/09/25 06:45:59;;;;;;;44.63;14.32;;;;;;;16.74;84.76;101462.50;5055494;28;20028;-40
2021/09/25 06:48:25;;;;;;;27.35;11.65;;;;;;;16.82;84.62;101465.03;5055527;28;20086;-40
2021/09/25 06:50:50;;;;;;;43.60;12.40;;;;;;;16.97;84.44;101469.47;5054970;28;20068;-42
2021/09/25 06:53:15;;;;;;;36.72;13.02;;;;;;;16.89;84.17;101470.50;5054935;28;20057;-41
2021/09/25 06:55:41;;;;;;;52.00;14.10;;;;;;;16.89;84.29;101475.94;5055085;28;20021;-41
2021/09/25 06:58:06;;;;;;;40.55;15.20;;;;;;;16.88;84.15;101472.38;5054968;28;20111;-42
2021/09/25 07:00:32;;;;;;;47.03;14.90;;;;;;;16.89;84.24;101468.59;5054992;28;20025;-42
2021/09/25 07:02:58;;;;;;;47.13;16.92;;;;;;;16.93;84.21;101468.19;5054873;28;20029;-41
2021/09/25 07:05:23;;;;;;;53.45;16.23;;;;;;;16.92;83.94;101472.78;5054725;28;20111;-40
2021/09/25 07:07:50;;;;;;;47.65;15.85;;;;;;;16.88;84.29;101480.53;5054836;28;20032;-41
2021/09/25 07:10:15;;;;;;;50.45;16.05;;;;;;;16.91;84.39;101467.59;5054715;28;20086;-41
2021/09/25 07:12:41;;;;;;;44.40;16.90;;;;;;;16.93;84.69;101471.75;5053729;28;20083;-41
2021/09/25 07:15:06;;;;;;;47.75;15.73;;;;;;;17.03;84.20;101469.44;5054881;28;20040;-42
2021/09/25 07:17:32;;;;;;;51.03;16.83;;;;;;;17.08;83.73;101466.09;5054694;28;20036;-42
2021/09/25 07:19:58;;;;;;;51.75;17.10;;;;;;;17.07;83.82;101472.59;5054659;28;20425;-41
2021/09/25 07:22:23;;;;;;;47.00;16.58;;;;;;;17.13;83.64;101473.63;5054403;28;20025;-42
2021/09/25 07:24:54;;;;;;;47.00;17.02;;;;;;;17.12;83.85;101475.53;5054557;28;20025;-43
2021/09/25 07:27:20;;;;;;;46.45;17.90;;;;;;;17.01;83.80;101482.44;5054609;28;20087;-41
2021/09/25 07:29:45;;;;;;;57.13;18.38;;;;;;;16.94;84.14;101483.47;5054426;28;20036;-41
2021/09/25 07:32:11;;;;;;;53.90;18.35;;;;;;;17.00;84.03;101490.78;5054543;28;20387;-41
2021/09/25 07:34:36;;;;;;;46.60;18.25;;;;;;;17.05;83.79;101493.72;5054573;28;20338;-41
2021/09/25 07:37:02;;;;;;;43.40;18.23;;;;;;;17.09;83.54;101497.72;5054607;28;20032;-41
2021/09/25 07:39:27;;;;;;;52.67;19.33;;;;;;;17.10;83.81;101499.38;5054106;28;20028;-41
2021/09/25 07:41:52;;;;;;;53.45;19.10;;;;;;;17.09;83.89;101500.44;5054054;28;20043;-41
2021/09/25 07:44:17;;;;;;;45.08;18.45;;;;;;;17.18;83.82;101503.75;5054141;28;20132;-41
2021/09/25 07:46:43;;;;;;;51.95;19.30;;;;;;;17.28;83.21;101510.47;5054132;28;20084;-41
2021/09/25 07:49:08;;;;;;;43.33;16.88;;;;;;;17.38;83.13;101503.72;5054124;28;20484;-41
2021/09/25 07:51:34;;;;;;;45.63;17.65;;;;;;;17.32;83.00;101505.41;5053989;28;20451;-42
2021/09/25 07:53:59;;;;;;;52.10;19.30;;;;;;;17.30;83.12;101508.38;5052544;28;20020;-41
2021/09/25 07:56:24;;;;;;;53.63;18.15;;;;;;;17.26;83.40;101512.53;5052565;28;20476;-42
2021/09/25 07:58:50;;;;;;;50.38;18.90;;;;;;;17.24;83.51;101514.63;5053541;28;20538;-42
2021/09/25 08:01:15;;;;;;;58.53;20.85;;;;;;;17.26;83.44;101526.16;5053810;28;20657;-41
2021/09/25 08:03:43;;;;;;;53.00;20.75;;;;;;;17.30;83.66;101526.59;5053647;28;20468;-41
2021/09/25 08:06:10;;;;;;;52.10;18.85;;;;;;;17.28;83.42;101528.66;5053584;28;20094;-41
2021/09/25 08:08:35;;;;;;;49.03;18.60;;;;;;;17.32;83.57;101532.63;5053644;28;20028;-41
2021/09/25 08:11:00;;;;;;;48.05;18.40;;;;;;;17.38;83.21;101525.50;5053475;28;20024;-41
2021/09/25 08:13:25;;;;;;;55.80;21.17;;;;;;;17.39;83.00;101538.91;5053419;28;20021;-40
2021/09/25 08:15:51;;;;;;;53.67;18.92;;;;;;;17.45;82.94;101542.66;5053753;28;20033;-41
2021/09/25 08:18:17;;;;;;;50.15;18.25;;;;;;;17.55;82.70;101543.91;5050362;28;20104;-42
2021/09/25 08:20:43;;;;;;;50.42;18.92;;;;;;;17.58;82.49;101548.09;5033943;28;20063;-41
2021/09/25 08:23:08;;;;;;;50.97;19.45;;;;;;;17.58;82.78;101556.25;5044179;28;20025;-41
2021/09/25 08:25:34;;;;;;;46.40;19.00;;;;;;;17.57;82.52;101546.44;5048621;28;20025;-41
2021/09/25 08:27:59;;;;;;;48.75;18.60;;;;;;;17.65;82.35;101546.22;5034375;28;20040;-42
2021/09/25 08:30:25;;;;;;;40.63;17.95;;;;;;;17.77;82.40;101552.69;5043592;28;20075;-41
2021/09/25 08:32:54;;;;;;;43.08;18.33;;;;;;;17.87;81.95;101559.59;5053185;28;20104;-42
2021/09/25 08:35:22;;;;;;;44.65;18.98;;;;;;;17.82;82.09;101553.97;5036593;28;20037;-41
2021/09/25 08:37:47;;;;;;;;;;;;;;;17.78;82.18;101557.09;5041194;28;20028;-41
2021/09/25 08:40:13;;;;;;;36.35;16.60;;;;;;;17.74;82.21;101555.81;5042092;28;19923;-41
2021/09/25 08:42:39;;;;;;;43.00;18.38;;;;;;;17.86;82.26;101560.66;5044137;28;20028;-40
2021/09/25 08:45:06;;;;;;;44.70;16.48;;;;;;;18.01;81.76;101568.56;5042027;28;20026;-42
2021/09/25 08:47:33;;;;;;;35.63;16.77;;;;;;;18.13;81.27;101558.69;5042983;28;20384;-41
2021/09/25 08:49:58;;;;;;;39.33;16.35;;;;;;;18.14;80.67;101563.94;5035799;28;20657;-41
2021/09/25 08:52:24;;;;;;;35.33;15.70;;;;;;;18.15;80.84;101565.59;5036325;28;20061;-42
2021/09/25 08:54:49;;;;;;;40.70;17.15;;;;;;;18.32;80.53;101574.13;5053140;28;20113;-43
2021/09/25 08:57:15;;;;;;;40.78;16.30;;;;;;;18.45;79.61;101578.69;5046487;28;20033;-41
2021/09/25 08:59:40;;;;;;;36.80;16.10;;;;;;;18.34;80.27;101573.94;5041204;28;20071;-43
2021/09/25 09:02:14;;;;;;;37.25;16.38;;;;;;;18.53;79.33;101573.00;5045921;28;20068;-42
2021/09/25 09:04:41;;;;;;;47.90;17.38;;;;;;;18.52;78.54;101576.78;5039318;28;20022;-42
2021/09/25 09:07:16;;;;;;;34.90;15.63;;;;;;;18.77;78.68;101573.31;5048117;28;20078;-42
2021/09/25 09:09:44;;;;;;;37.65;15.85;;;;;;;18.85;77.68;101564.88;5041670;28;20029;-41
2021/09/25 09:12:10;;;;;;;41.25;17.27;;;;;;;18.94;77.27;101579.94;5032323;28;20056;-41
2021/09/25 09:14:46;;;;;;;31.58;15.68;;;;;;;18.86;77.29;101572.84;5051405;28;20416;-42
2021/09/25 09:17:16;;;;;;;36.70;16.55;;;;;;;18.69;77.77;101581.72;5034054;28;20040;-41
2021/09/25 09:19:42;;;;;;;30.27;15.43;;;;;;;18.59;78.17;101587.69;5032110;28;20021;-41
2021/09/25 09:22:08;;;;;;;31.45;15.18;;;;;;;18.53;78.70;101585.78;5031850;28;20033;-42
2021/09/25 09:24:41;;;;;;;33.25;15.63;;;;;;;18.58;78.28;101586.81;5033234;28;20064;-42
2021/09/25 09:27:14;;;;;;;39.17;16.40;;;;;;;18.53;78.16;101588.53;5032062;28;20071;-42
2021/09/25 09:29:40;;;;;;;37.13;16.55;;;;;;;18.52;78.30;101582.25;5033072;28;20506;-42
2021/09/25 09:32:08;;;;;;;30.95;14.65;;;;;;;18.63;78.17;101592.44;5031805;28;20034;-41
2021/09/25 09:34:37;;;;;;;;;;;;;;;18.68;77.93;101593.69;5035050;28;20070;-42
2021/09/25 09:37:11;;;;;;;28.27;15.63;;;;;;;18.69;77.99;101595.38;5046527;28;19913;-43
2021/09/25 09:39:36;;;;;;;31.52;16.67;;;;;;;18.57;77.87;101587.88;5039513;28;20049;-42
2021/09/25 09:42:02;;;;;;;36.53;16.52;;;;;;;18.51;78.53;101587.91;5037339;28;20047;-42
2021/09/25 09:44:31;;;;;;;32.05;15.82;;;;;;;18.47;78.83;101589.41;5045798;28;20029;-42
2021/09/25 09:47:01;;;;;;;37.25;15.95;;;;;;;18.53;78.41;101583.91;5031838;28;20025;-42
2021/09/25 09:49:31;;;;;;;40.38;18.70;;;;;;;18.54;78.39;101585.59;5040905;28;20039;-42
2021/09/25 09:52:09;;;;;;;37.65;18.10;;;;;;;18.50;78.63;101587.06;5051827;28;20429;-41
2021/09/25 09:54:37;;;;;;;35.72;16.90;;;;;;;18.51;78.98;101585.16;5050338;28;20361;-42
2021/09/25 09:57:08;;;;;;;43.00;19.45;;;;;;;18.40;79.09;101589.41;5051349;28;20025;-42
2021/09/25 09:59:34;;;;;;;40.60;18.17;;;;;;;18.49;79.62;101588.13;5050451;28;20547;-43
2021/09/25 10:01:59;;;;;;;32.45;16.85;;;;;;;18.62;78.82;101588.06;5051691;28;20029;-42
2021/09/25 10:04:25;;;;;;;34.72;17.42;;;;;;;18.69;78.55;101587.19;5050431;28;20025;-43
2021/09/25 10:06:53;;;;;;;34.60;16.25;;;;;;;18.90;77.84;101594.22;5050952;28;20033;-40
2021/09/25 10:09:21;;;;;;;38.92;18.67;;;;;;;18.61;78.20;101594.56;5049835;28;20033;-40
2021/09/25 10:11:48;;;;;;;37.20;18.38;;;;;;;18.64;78.70;101591.41;5046896;28;20029;-42
2021/09/25 10:14:17;;;;;;;39.83;18.15;;;;;;;18.66;78.24;101596.63;5042124;28;20414;-41
2021/09/25 10:16:42;;;;;;;37.65;19.67;;;;;;;18.61;78.04;101597.28;5038077;28;20050;-41
2021/09/25 10:19:10;;;;;;;38.33;18.67;;;;;;;18.63;78.23;101594.34;5042402;28;20061;-41
2021/09/25 10:21:36;;;;;;;;;;;;;;;18.67;78.47;101589.28;5034686;28;20049;-41
2021/09/25 10:24:12;;;;;;;43.83;19.77;;;;;;;18.69;78.58;101595.38;5048385;28;19913;-40
2021/09/25 10:26:43;;;;;;;52.65;21.30;;;;;;;18.49;78.73;101585.41;5023739;28;20045;-42
2021/09/25 10:29:09;;;;;;;42.63;21.45;;;;;;;18.56;79.10;101582.63;5045633;28;20037;-41
2021/09/25 10:31:34;;;;;;;45.95;21.20;;;;;;;18.53;78.87;101583.91;5046722;28;20043;-41
2021/09/25 10:34:18;;;;;;;48.95;22.40;;;;;;;18.55;79.14;101589.97;5042582;28;20443;-41
2021/09/25 10:36:48;;;;;;;48.58;23.40;;;;;;;18.63;78.51;101584.28;5041771;28;20363;-40
2021/09/25 10:39:39;;;;;;;46.22;23.08;;;;;;;18.65;78.49;101592.25;5038938;28;20036;-39
2021/09/25 10:42:11;;;;;;;42.35;20.45;;;;;;;18.77;78.14;101590.56;5043675;28;20450;-42
2021/09/25 10:44:46;;;;;;;48.67;23.17;;;;;;;18.83;78.04;101580.66;5046702;28;20082;-41
2021/09/25 10:47:20;;;;;;;45.20;23.50;;;;;;;18.93;77.58;101582.88;5038853;28;20033;-41
2021/09/25 10:49:49;;;;;;;51.42;24.67;;;;;;;18.93;77.38;101578.28;5050161;28;20451;-43
2021/09/25 10:52:17;;;;;;;43.50;22.35;;;;;;;19.04;77.32;101574.84;5053445;28;20028;-43
2021/09/25 10:54:44;;;;;;;50.25;23.05;;;;;;;19.12;77.12;101575.66;5040542;28;20436;-42
2021/09/25 10:57:18;;;;;;;42.42;22.92;;;;;;;19.08;77.13;101578.78;5040792;28;20056;-41
2021/09/25 11:00:21;;;;;;;48.92;22.95;;;;;;;19.10;77.51;101583.22;5046825;28;20044;-42
2021/09/25 11:02:47;;;;;;;45.58;23.77;;;;;;;19.02;77.48;101579.69;5049928;28;20047;-43
2021/09/25 11:05:56;;;;;;;47.60;23.23;;;;;;;19.06;77.40;101577.34;5051878;28;20423;-42
2021/09/25 11:08:31;;;;;;;50.92;24.25;;;;;;;19.21;77.05;101579.75;5043175;28;20040;-42
2021/09/25 11:11:06;;;;;;;36.15;21.75;;;;;;;19.17;76.52;101579.38;5053536;28;20033;-42